Latest Weather Observations for West Wyalong

IDN60801

Issued at 9:35 pm EST Sunday 21 September 2014 (issued every 30 minutes, with the page automatically refreshed every 10 minutes)

About weather observations | Map of weather stations | Latest weather observations for NSW | Other Formats
Station Details ID: 050017 Name: WEST WYALONG AIRPORT AWS Lat: -33.94 Lon: 147.20 Height: 257.0 m
Data from the previous 72 hours. | See also: Recent months for locations in New South Wales
Date/Time
EST
Temp
°C
App
Temp
°C
Dew
Point
Rel
Hum
%
Delta-T
°C
Wind Press
QNH
hPa
Press
MSL
hPa
Rain
since 9 am
mm
Dir
 
Spd
km/h
Gust
km/h
Spd
kts
Gust
kts
21/09:30pm 7.7 5.4 3.0 72 2.0 S 4 7 2 4 1028.7 1028.7 0.0
21/09:00pm 9.0 6.4 3.0 66 2.6 SW 6 7 3 4 1028.5 1028.5 0.0
21/08:30pm 8.5 5.6 2.7 67 2.5 SSW 7 9 4 5 1028.2 1028.2 0.0
21/08:00pm 11.3 9.8 2.9 56 3.7 CALM 0 0 0 0 1027.7 1027.7 0.0
21/07:30pm 12.2 10.6 2.6 52 4.2 CALM 0 4 0 2 1027.3 1027.3 0.0
21/07:00pm 13.2 11.6 2.4 48 4.8 CALM 0 0 0 0 1026.8 1026.7 0.0
21/06:30pm 15.0 12.2 2.2 42 5.7 ESE 6 9 3 5 1026.3 1026.2 0.0
21/06:00pm 16.8 13.6 2.8 39 6.4 ESE 9 11 5 6 1026.0 1025.9 0.0
21/05:30pm 19.6 15.5 2.0 31 8.2 ESE 13 15 7 8 1025.9 1025.8 0.0
21/05:00pm 20.7 16.9 2.0 29 8.7 SE 11 19 6 10 1025.8 1025.7 0.0
21/04:30pm 21.4 18.6 2.2 28 9.1 SSW 6 11 3 6 1025.9 1025.8 0.0
21/04:00pm 21.5 18.7 2.2 28 9.1 E 6 11 3 6 1026.0 1025.9 0.0
21/03:30pm 21.6 18.2 1.8 27 9.3 SE 9 15 5 8 1026.2 1026.1 0.0
21/03:00pm 21.8 18.8 3.9 31 8.7 ENE 9 19 5 10 1026.3 1026.2 0.0
21/02:30pm 21.0 17.8 3.2 31 8.6 S 9 17 5 9 1026.6 1026.5 0.0
21/02:00pm 21.0 18.0 4.1 33 8.2 SW 9 15 5 8 1027.0 1026.9 0.0
21/01:30pm 21.1 18.4 5.5 36 7.8 NNW 9 13 5 7 1027.4 1027.4 0.0
21/01:00pm 19.8 17.1 3.5 34 7.8 NE 7 13 4 7 1027.8 1027.8 0.0
21/12:30pm 19.7 16.7 4.2 36 7.5 W 9 17 5 9 1028.3 1028.3 0.0
21/12:00pm 19.3 16.7 4.3 37 7.2 NNW 7 15 4 8 1028.7 1028.7 0.0
21/11:30am 19.3 16.7 6.1 42 6.6 WNW 9 13 5 7 1029.4 1029.3 0.0
21/11:00am 17.6 15.4 5.5 45 5.9 SSW 6 11 3 6 1029.7 1029.6 0.0
21/10:30am 17.0 15.1 6.8 51 5.1 N 6 11 3 6 1030.2 1030.1 0.0
21/10:00am 15.5 12.9 6.0 53 4.6 N 9 13 5 7 1030.4 1030.3 0.0
21/09:30am 14.9 12.8 6.0 55 4.3 NNE 6 9 3 5 1030.3 1030.2 0.0
21/09:00am 13.3 11.0 5.7 60 3.6 NNE 7 13 4 7 1030.3 1030.2 0.0
21/08:30am 11.4 9.1 5.7 68 2.7 E 7 11 4 6 1029.9 1029.8 0.0
21/08:00am 9.0 6.5 4.8 75 1.9 SE 7 11 4 6 1029.3 1029.2 0.0
21/07:30am 7.6 5.1 4.7 82 1.3 SE 7 9 4 5 1028.7 1028.7 0.0
21/07:00am 5.5 4.3 4.6 94 0.4 CALM 0 0 0 0 1028.3 1028.3 0.0
21/06:30am 2.8 1.1 1.9 94 0.4 CALM 0 0 0 0 1027.8 1027.8 0.0
21/06:00am 2.2 -0.7 1.3 94 0.3 SSW 6 6 3 3 1027.4 1027.4 0.0
21/05:30am 1.9 -1.2 0.4 90 0.6 SE 6 7 3 4 1027.0 1026.9 0.0
21/05:00am 1.8 -0.2 0.2 89 0.6 CALM 0 0 0 0 1026.7 1026.6 0.0
21/04:30am 3.1 1.4 1.6 90 0.6 CALM 0 0 0 0 1026.5 1026.4 0.0
21/04:00am 4.3 2.7 2.2 86 0.8 CALM 0 0 0 0 1026.4 1026.3 0.0
21/03:30am 4.1 1.2 1.6 84 1.0 S 6 7 3 4 1026.1 1026.0 0.0
21/03:00am 4.1 1.2 1.3 82 1.1 SE 6 7 3 4 1026.1 1026.0 0.0
21/02:30am 4.1 2.0 1.5 83 1.0 S 2 6 1 3 1026.1 1026.0 0.0
21/02:00am 5.9 3.2 2.7 80 1.3 S 6 7 3 4 1026.3 1026.2 0.0
21/01:30am 5.5 2.7 2.0 78 1.4 SSW 6 9 3 5 1026.5 1026.4 0.0
21/01:00am 6.5 3.5 2.2 74 1.8 SW 7 7 4 4 1026.5 1026.4 0.0
21/12:30am 6.9 3.9 2.2 72 2.0 WSW 7 7 4 4 1026.4 1026.3 0.0
21/12:00am 7.5 4.2 2.2 69 2.2 WSW 9 9 5 5 1026.6 1026.5 0.0
 
Date/Time
EST
Temp
°C
App
Temp
°C
Dew
Point
Rel
Hum
%
Delta-T
°C
Wind Press
QNH
hPa
Press
MSL
hPa
Rain
since 9 am
mm
Dir
 
Spd
km/h
Gust
km/h
Spd
kts
Gust
kts
20/11:30pm 8.1 4.8 2.4 67 2.4 SW 9 11 5 6 1026.6 1026.5 0.0
20/11:00pm 8.8 5.4 1.9 62 2.9 SW 9 11 5 6 1026.6 1026.5 0.0
20/10:30pm 9.4 5.6 1.8 59 3.2 WSW 11 11 6 6 1026.6 1026.5 0.0
20/10:00pm 9.2 5.0 1.9 60 3.1 WSW 13 15 7 8 1026.5 1026.4 0.0
20/09:30pm 7.1 5.2 0.8 64 2.5 CALM 0 0 0 0 1026.2 1026.1 0.0
20/09:00pm 8.6 6.8 1.1 59 3.1 CALM 0 0 0 0 1026.1 1026.0 0.0
20/08:30pm 10.4 7.3 1.5 54 3.8 ESE 7 7 4 4 1025.9 1025.8 0.0
20/08:00pm 11.6 8.1 1.3 49 4.4 SW 9 11 5 6 1025.6 1025.5 0.0
20/07:30pm 11.3 7.8 1.5 51 4.2 SW 9 11 5 6 1025.2 1025.1 0.0
20/07:00pm 12.3 8.8 1.0 46 4.8 SSW 9 13 5 7 1024.8 1024.8 0.0
20/06:30pm 14.3 10.6 0.2 38 6.0 SSW 9 11 5 6 1024.3 1024.3 0.0
20/06:00pm 16.4 12.8 0.5 34 6.9 S 9 13 5 7 1023.8 1023.7 0.0
20/05:30pm 18.6 14.6 0.2 29 8.2 S 11 17 6 9 1023.3 1023.2 0.0
20/05:00pm 19.6 15.3 1.1 29 8.4 SSW 13 19 7 10 1023.0 1022.9 0.0
20/04:30pm 20.0 16.5 1.0 28 8.7 SE 9 15 5 8 1022.9 1022.8 0.0
20/04:00pm 20.4 16.1 1.3 28 8.8 SSW 13 20 7 11 1022.8 1022.7 0.0
20/03:30pm 20.4 16.1 1.3 28 8.8 SW 13 20 7 11 1022.7 1022.6 0.0
20/03:00pm 20.6 17.5 1.5 28 8.8 SSW 7 15 4 8 1022.9 1022.8 0.0
20/02:30pm 19.9 16.8 1.4 29 8.5 SW 7 17 4 9 1023.2 1023.1 0.0
20/02:00pm 19.8 15.9 1.3 29 8.4 SSE 11 24 6 13 1023.3 1023.2 0.0
20/01:30pm 19.1 15.7 2.0 32 7.9 SSE 9 17 5 9 1023.5 1023.4 0.0
20/01:00pm 18.5 15.6 2.8 35 7.3 S 7 19 4 10 1023.9 1023.8 0.0
20/12:30pm 17.6 14.2 1.6 34 7.3 SSE 9 15 5 8 1024.1 1024.1 0.0
20/12:00pm 17.0 13.3 2.2 37 6.7 SE 11 17 6 9 1024.5 1024.5 0.0
20/11:30am 16.5 13.2 2.2 38 6.5 E 9 15 5 8 1024.6 1024.6 0.0
20/11:00am 15.8 12.4 4.2 46 5.4 SE 11 20 6 11 1024.9 1024.9 0.0
20/10:30am 14.8 11.7 3.6 47 5.2 SE 9 17 5 9 1024.9 1024.9 0.0
20/10:00am 14.4 11.1 4.7 52 4.5 SE 11 17 6 9 1025.0 1025.0 0.0
20/09:30am 13.0 9.6 3.9 54 4.2 SSW 11 17 6 9 1025.3 1025.2 0.0
20/09:00am 12.0 9.1 4.7 61 3.4 WSW 9 13 5 7 1025.3 1025.2 0.0
20/08:30am 10.6 7.3 4.5 66 2.8 SW 11 13 6 7 1024.9 1024.9 0.0
20/08:00am 9.2 5.9 4.4 72 2.1 SW 11 15 6 8 1024.8 1024.8 0.0
20/07:30am 7.2 3.4 3.8 79 1.5 SW 13 17 7 9 1024.6 1024.6 0.0
20/07:00am 4.6 1.1 3.7 94 0.4 WSW 11 13 6 7 1024.4 1024.4 0.0
20/06:30am 1.8 -2.2 0.8 93 0.4 WSW 11 11 6 6 1024.1 1024.1 0.0
20/06:00am 0.9 -2.4 -0.1 93 0.4 WSW 7 9 4 5 1023.8 1023.7 0.0
20/05:30am 0.6 -2.8 -0.5 92 0.4 WSW 7 9 4 5 1023.4 1023.3 0.0
20/05:00am 0.8 -2.6 -0.3 92 0.4 W 7 9 4 5 1023.3 1023.2 0.0
20/04:30am 0.8 -1.3 -0.5 91 0.5 CALM 0 0 0 0 1022.6 1022.5 0.0
20/04:00am 1.0 -1.1 -0.8 88 0.6 CALM 0 0 0 0 1022.6 1022.5 0.0
20/03:30am 1.7 -0.3 0.2 90 0.6 CALM 0 0 0 0 1022.6 1022.5 0.0
20/03:00am 2.1 0.2 0.5 89 0.6 CALM 0 0 0 0 1022.5 1022.4 0.0
20/02:30am 3.0 1.0 0.2 82 1.1 CALM 0 2 0 1 1022.6 1022.5 0.0
20/02:00am 3.8 2.0 1.5 85 0.9 CALM 0 0 0 0 1022.6 1022.5 0.0
20/01:30am 4.4 0.9 1.1 79 1.3 SW 9 11 5 6 1022.9 1022.8 0.0
20/01:00am 4.3 0.1 1.5 82 1.1 WSW 13 13 7 7 1023.1 1023.0 0.0
20/12:30am 4.4 1.2 0.6 76 1.5 WSW 7 9 4 5 1023.2 1023.1 0.0
20/12:00am 5.7 1.9 1.6 75 1.7 WSW 11 11 6 6 1023.3 1023.2 0.0
 
Date/Time
EST
Temp
°C
App
Temp
°C
Dew
Point
Rel
Hum
%
Delta-T
°C
Wind Press
QNH
hPa
Press
MSL
hPa
Rain
since 9 am
mm
Dir
 
Spd
km/h
Gust
km/h
Spd
kts
Gust
kts
19/11:30pm 6.1 3.0 1.4 72 1.9 WSW 7 11 4 6 1023.3 1023.2 0.0
19/11:00pm 7.0 3.5 1.5 68 2.2 WSW 9 11 5 6 1023.6 1023.5 0.0
19/10:30pm 7.3 3.4 1.0 64 2.6 WSW 11 13 6 7 1023.6 1023.5 0.0
19/10:00pm 7.6 3.2 0.3 60 2.9 WSW 13 13 7 7 1023.7 1023.6 0.0
19/09:30pm 6.5 2.3 -0.9 59 2.8 WSW 11 13 6 7 1023.6 1023.5 0.0
19/09:00pm 8.5 3.9 -0.8 52 3.6 WSW 13 17 7 9 1023.6 1023.5 0.0
19/08:30pm 6.0 1.3 -1.9 57 2.9 WSW 13 15 7 8 1023.3 1023.2 0.0
19/08:00pm 8.9 4.4 -3.0 43 4.4 W 11 11 6 6 1023.1 1023.0 0.0
19/07:30pm 9.6 5.5 -3.0 41 4.8 WSW 9 11 5 6 1022.8 1022.7 0.0
19/07:00pm 10.2 6.1 -2.8 40 5.0 WSW 9 11 5 6 1022.4 1022.3 0.0
19/06:30pm 11.5 7.4 -3.0 36 5.6 SW 9 13 5 7 1022.1 1022.0 0.0
19/06:00pm 13.8 9.0 -2.6 32 6.5 SW 13 15 7 8 1021.8 1021.7 0.0
19/05:30pm 16.0 10.4 -2.5 28 7.6 SW 17 22 9 12 1021.4 1021.3 0.0
19/05:00pm 16.9 11.4 -2.2 27 7.9 SW 17 22 9 12 1021.3 1021.2 0.0
19/04:30pm 17.4 13.1 -1.8 27 8.1 SSW 11 15 6 8 1020.9 1020.9 0.0
19/04:00pm 17.6 11.7 -2.6 25 8.4 WSW 19 24 10 13 1020.8 1020.8 0.0
19/03:30pm 17.6 12.1 -2.1 26 8.3 S 17 22 9 12 1020.7 1020.7 0.0
19/03:00pm 17.3 11.3 -2.9 25 8.3 SW 19 26 10 14 1020.9 1020.9 0.0
19/02:30pm 17.7 13.6 -0.5 29 7.9 SW 11 24 6 13 1021.0 1021.0 0.0
19/02:00pm 17.4 12.5 -0.3 30 7.7 SW 15 20 8 11 1021.3 1021.2 0.0
19/01:30pm 16.4 10.7 -0.8 31 7.3 SSW 19 26 10 14 1021.6 1021.5 0.0
19/01:00pm 15.4 9.6 -1.2 32 6.9 SSW 19 26 10 14 1022.1 1022.0 0.0
19/12:30pm 15.5 9.8 -1.1 32 7.0 S 19 30 10 16 1022.3 1022.2 0.0
19/12:00pm 15.5 10.5 1.3 38 6.3 SW 17 24 9 13 1022.6 1022.5 0.0
19/11:30am 14.2 8.9 -0.3 37 6.1 SSW 17 22 9 12 1023.1 1023.0 0.0
19/11:00am 13.8 8.4 1.1 42 5.5 S 19 28 10 15 1023.6 1023.5 0.0
19/10:30am 13.2 7.8 1.2 44 5.2 SSW 19 24 10 13 1023.9 1023.8 0.0
19/10:00am 13.1 7.7 2.4 48 4.7 SSW 20 24 11 13 1024.1 1024.1 0.0
19/09:30am 12.6 8.1 4.1 56 3.9 S 17 20 9 11 1024.1 1024.1 0.0
19/09:00am 11.6 7.5 4.1 60 3.4 S 15 22 8 12 1024.1 1024.1 0.0
19/08:30am 9.7 6.3 4.1 68 2.5 SSW 11 15 6 8 1024.2 1024.2 0.0
19/08:00am 7.7 4.2 3.4 74 1.8 SW 11 13 6 7 1024.1 1024.1 0.0
19/07:30am 6.0 3.2 3.3 83 1.1 SSW 7 11 4 6 1023.9 1023.8 0.0
19/07:00am 3.8 0.8 2.0 88 0.7 WSW 7 7 4 4 1023.7 1023.6 0.0
19/06:30am 3.3 -0.2 1.0 85 0.9 SW 9 9 5 5 1023.4 1023.3 0.0
19/06:00am 3.5 0.6 1.7 88 0.7 SW 6 7 3 4 1023.2 1023.1 0.0
19/05:30am 2.6 0.8 1.0 89 0.6 CALM 0 6 0 3 1022.9 1022.8 0.0
19/05:00am 2.2 0.3 0.6 89 0.6 CALM 0 4 0 2 1022.7 1022.6 0.0
19/04:30am 2.5 -0.7 0.6 87 0.7 W 7 7 4 4 1022.5 1022.4 0.0
19/04:00am 2.9 -0.6 1.1 88 0.7 W 9 9 5 5 1022.4 1022.3 0.0
19/03:30am 2.2 -1.1 -0.2 84 0.9 W 7 9 4 5 1022.5 1022.4 0.0
19/03:00am 4.1 0.6 1.1 81 1.2 W 9 11 5 6 1022.4 1022.3 0.0
19/02:30am 3.9 0.7 0.6 79 1.3 W 7 9 4 5 1022.5 1022.4 0.0
19/02:00am 4.3 0.3 0.8 78 1.4 W 11 11 6 6 1022.5 1022.4 0.0
19/01:30am 4.7 1.2 1.0 77 1.5 WSW 9 11 5 6 1022.6 1022.5 0.0
19/01:00am 4.6 1.0 0.7 76 1.5 WSW 9 9 5 5 1022.9 1022.8 0.0
19/12:30am 5.5 1.9 0.9 72 1.8 WSW 9 9 5 5 1023.0 1022.9 0.0
19/12:00am 5.0 1.4 0.6 73 1.7 WSW 9 9 5 5 1023.3 1023.2 0.0
 
Date/Time
EST
Temp
°C
App
Temp
°C
Dew
Point
Rel
Hum
%
Delta-T
°C
Wind Press
QNH
hPa
Press
MSL
hPa
Rain
since 9 am
mm
Dir
 
Spd
km/h
Gust
km/h
Spd
kts
Gust
kts
18/11:30pm 4.3 1.0 0.1 74 1.6 WSW 7 7 4 4 1023.5 1023.4 0.0
18/11:00pm 5.0 1.8 0.8 74 1.6 W 7 9 4 5 1023.7 1023.6 0.0
18/10:30pm 4.4 1.3 0.0 73 1.7 W 6 7 3 4 1023.5 1023.4 0.0
18/10:00pm 5.5 2.3 0.5 70 2.0 WSW 7 9 4 5 1023.6 1023.5 0.0

Other Formats:

Comma delimited format used in spreadsheet applications
http://www.bom.gov.au/fwo/IDN60801/IDN60801.95709.axf

JavaScript Object Notation format (JSON) in row-major order
http://www.bom.gov.au/fwo/IDN60801/IDN60801.95709.json